Weather at Nicosia International Airport [CLOSED]

Public forecast

Using degrees Celsius for public forecast. Weather courtesy of forecast.io.

Closest aviation weather report (METAR) to Nicosia International Airport

Report is more than 6 hours old.

Closest report is Ercan International Airport, 10.7 nm (19.8 km) E. Retrieved 2022/09/17 18:50 UTC (15 days ago):

LCEN 171850Z 29011KT CAVOK 25/21 Q1008 NOSIG RMK RWY11 30008KT

Closest aviation forecast (TAF) to Nicosia International Airport

Forecast is more than 12 hours old.

Closest forecast is Ercan International Airport, 10.7 nm (19.8 km) E. Retrieved 2022/09/17 18:03 UTC (15 days ago):

TAF TAF LCEN 171640Z 1718/1818 29012KT CAVOK